Nearby METAR Reports


KSYR - Syracuse, New York, USA
Distance from station: SE 5mi, 8km
Updated: Wed, 19-Dec-2018 1:54am EST
Few Clouds
Few Clouds
 Wind from calm
Wind: Calm
Temperature: 21°F , -6°C
Dew Point: 16°F , -9°C
Humidity: 80%
Barometer: 30.12 inHg , 1020 hPa
Clouds: Few Clouds
Visibility: 10 miles , 16 km
Cloud details: Few Clouds 2700 ft
2018/12/19 06:54 KSYR 190654Z 00000KT 10SM FEW027 M06/M09 A3012 RMK AO2 SLP204 T10611089
KFZY - Fulton, New York, USA
Distance from station: NW 17mi, 27km
Updated: Wed, 19-Dec-2018 1:54am EST
Clear
Clear
 Wind from SSW
Wind: SSW 5 mph , 7 km/h
Temperature: 21°F , -6°C
Wind Chill: 14°F , -10°C
Dew Point: 14°F , -10°C
Humidity: 74%
Barometer: 30.12 inHg , 1020 hPa
Clouds: Clear
Visibility: 10 miles , 16 km
2018/12/19 06:54 KFZY 190654Z AUTO 20004KT 10SM CLR M06/M10 A3012 RMK AO2 SLP207 T10561100
 
KRME - Rome/Griffiss Af, New York, USA
Distance from station: E 39mi, 62km
Updated: Wed, 19-Dec-2018 2:27am EST
Partly cloudy
Partly cloudy
 Wind from calm
Wind: Calm
Temperature: 18°F , -8°C
Dew Point: 16°F , -9°C
Humidity: 93%
Barometer: 30.15 inHg , 1021 hPa
Clouds: Partly cloudy
Visibility: 10 miles , 16 km
Cloud details: Partly cloudy 2200 ft
2018/12/19 07:27 KRME 190727Z AUTO 00000KT 10SM SCT022 M08/M09 A3015 RMK AO2 T10781089
KITH - Ithaca/Tompkins, New York, USA
Distance from station: SSW 51mi, 82km
Updated: Wed, 19-Dec-2018 1:56am EST
Clear
Clear
 Wind from calm
Wind: Calm
Temperature: 12°F , -11°C
Dew Point: 10°F , -12°C
Humidity: 92%
Barometer: 30.11 inHg , 1019.6 hPa
Clouds: Clear
Visibility: 10 miles , 16 km
2018/12/19 06:56 KITH 190656Z AUTO 00000KT 10SM CLR M11/M12 A3011 RMK AO2 SLP217 T11111122
 
KART - Watertown, New York, USA
Distance from station: N 56mi, 91km
Updated: Wed, 19-Dec-2018 1:56am EST
Clear
Clear
 Wind from calm
Wind: Calm
Temperature: 12°F , -11°C
Dew Point: 10°F , -12°C
Humidity: 92%
Barometer: 30.12 inHg , 1020 hPa
Clouds: Clear
Visibility: 10 miles , 16 km
2018/12/19 06:56 KART 190656Z AUTO 00000KT 10SM CLR M11/M12 A3012 RMK AO2 SLP208 T11061117
KPEO - Penn Yan, New York, USA
Distance from station: SW 58mi, 93km
Updated: Wed, 19-Dec-2018 1:53am EST
Clear
Clear
 Wind from SW
Wind: SW 6 mph , 9 km/h
Temperature: 21°F , -6°C
Wind Chill: 13°F , -11°C
Dew Point: 18°F , -8°C
Humidity: 86%
Barometer: 30.10 inHg , 1019.3 hPa
Clouds: Clear
Visibility: 10 miles , 16 km
2018/12/19 06:53 KPEO 190653Z AUTO 22005KT 10SM CLR M06/M08 A3010 RMK AO2 SLP208 T10561078
 
KGTB - Fort Drum/Wheele, New York, USA
Distance from station: NNE 64mi, 102km
Updated: Wed, 19-Dec-2018 1:56am EST
Clear
Clear
 Wind from SE
Wind: SE 10 mph , 17 km/h
Temperature: 10°F , -12°C
Wind Chill: -4°F , -20°C
Dew Point: 5°F , -15°C
Humidity: 79%
Barometer: 30.09 inHg , 1019 hPa
Clouds: Clear
Visibility: 10 miles , 16 km
2018/12/19 06:56 KGTB 190656Z AUTO 14009KT 10SM CLR M12/M15 A3009 RMK AO2 SLP203 T11191148
CWQP - Point Petre (mar, Ontario, Canada
Distance from station: NW 67mi, 107km
Updated: Wed, 19-Dec-2018 2:00am EST

 Wind from ENE
Wind: ENE 8 mph , 13 km/h
Temperature: 19°F , -7°C
Wind Chill: 9°F , -13°C
Dew Point: 14°F , -10°C
Humidity: 79%
2018/12/19 07:00 CWQP 190700Z AUTO 06007KT M07/M10 RMK AO1 6PAST HR 6018 SLP194 P0006 T10711101 50016
 
KBGM - Binghamton, New York, USA
Distance from station: S 67mi, 107km
Updated: Wed, 19-Dec-2018 1:53am EST
Clear
Clear
 Wind from calm
Wind: Calm
Temperature: 16°F , -9°C
Dew Point: 10°F , -12°C
Humidity: 79%
Barometer: 30.07 inHg , 1018.3 hPa
Clouds: Clear
Visibility: 10 miles , 16 km
2018/12/19 06:53 KBGM 190653Z AUTO 00000KT 10SM CLR M09/M12 A3007 RMK AO2 SLP210 T10941117
CYGK - Kingston Arpt (m, Ontario, Canada
Distance from station: NNW 75mi, 121km
Updated: Tue, 18-Dec-2018 11:00pm EST
NOT Current
Few Clouds
Few Clouds
 Wind from W
Wind: W 2 mph , 4 km/h
Temperature: 16°F , -9°C
Dew Point: 10°F , -12°C
Humidity: 79%
Barometer: 30.14 inHg , 1020.7 hPa
Clouds: Few Clouds
Visibility: 15 miles , 24 km
Cloud details: Few Clouds 25000 ft
2018/12/19 04:00 CYGK 190400Z 28002KT 15SM FEW250 M09/M12 A3014 RMK CI2 LAST STFD OBS/NEXT 191100 UTC SLP214